Time;durP1;ratioP1;P1;durP2;ratioP2;P2;SDS_P1;SDS_P2;PMS_P1;PMS_P2;Temp;Humidity;BMP_temperature;BMP_pressure;BME280_temperature;BME280_humidity;BME280_pressure;Samples;Min_cycle;Max_cycle;Signal;HPM_P1;HPM_P2
2023/12/26 00:00:58;;;;;;;60.05;35.58;;;;;;;5.64;61.69;97697.81;10366646;28;20060;-51
2023/12/26 00:05:57;;;;;;;76.60;48.53;;;;;;;5.65;62.08;97728.75;10366501;28;20063;-50
2023/12/26 00:10:56;;;;;;;67.03;40.05;;;;;;;5.24;63.00;97679.09;10366741;28;20029;-50
2023/12/26 00:15:55;;;;;;;70.63;40.03;;;;;;;5.48;62.40;97735.28;10363855;28;20024;-50
2023/12/26 00:20:54;;;;;;;53.20;32.05;;;;;;;5.60;62.43;97760.38;10364922;28;20137;-49
2023/12/26 00:25:53;;;;;;;;;;;;;;;5.55;62.78;97766.34;10366538;28;20101;-49
2023/12/26 00:30:52;;;;;;;39.80;26.73;;;;;;;5.00;63.21;97689.78;10365918;28;19991;-50
2023/12/26 00:35:52;;;;;;;38.88;25.92;;;;;;;5.04;62.80;97697.59;10365708;28;20056;-51
2023/12/26 00:40:50;;;;;;;;;;;;;;;5.41;62.52;97757.47;10365996;28;20056;-50
2023/12/26 00:45:49;;;;;;;36.72;23.83;;;;;;;4.44;63.10;97605.50;10365231;28;19923;-49
2023/12/26 00:50:48;;;;;;;45.78;27.35;;;;;;;5.09;62.96;97731.97;10365123;28;20518;-52
2023/12/26 00:55:47;;;;;;;43.45;29.02;;;;;;;3.90;63.18;97540.16;10364861;28;20523;-49
2023/12/26 01:00:46;;;;;;;60.47;35.83;;;;;;;5.09;64.59;97761.97;10364745;28;20109;-52
2023/12/26 01:05:45;;;;;;;65.65;39.03;;;;;;;4.96;64.36;97755.69;10364369;28;20121;-49
2023/12/26 01:10:44;;;;;;;58.13;35.20;;;;;;;5.06;64.49;97778.22;10365201;28;20025;-49
2023/12/26 01:15:44;;;;;;;40.63;25.35;;;;;;;4.91;64.56;97753.00;10364410;28;20163;-50
2023/12/26 01:20:43;;;;;;;36.47;22.13;;;;;;;4.62;64.73;97724.09;10364283;28;20064;-49
2023/12/26 01:25:42;;;;;;;76.05;40.88;;;;;;;4.39;66.91;97766.41;10364415;28;20048;-50
2023/12/26 01:30:41;;;;;;;50.33;29.67;;;;;;;4.48;66.38;97767.47;10364228;28;20056;-52
2023/12/26 01:35:40;;;;;;;38.78;25.70;;;;;;;4.38;66.82;97764.66;10369693;28;20076;-50
2023/12/26 01:40:40;;;;;;;45.35;28.83;;;;;;;4.21;66.74;97742.00;10372878;28;20820;-50
2023/12/26 01:45:39;;;;;;;97.07;55.47;;;;;;;4.49;67.01;97791.47;10371530;28;20052;-50
2023/12/26 01:50:38;;;;;;;65.70;38.70;;;;;;;4.25;67.39;97764.38;10369896;28;20048;-49
2023/12/26 01:55:37;;;;;;;39.15;23.70;;;;;;;3.92;67.27;97699.38;10371778;28;20743;-52
2023/12/26 02:00:36;;;;;;;34.88;21.52;;;;;;;4.51;66.58;97784.66;10353180;28;20057;-51
2023/12/26 02:05:37;;;;;;;89.47;52.20;;;;;;;4.46;66.89;97768.28;10369983;28;20036;-49
2023/12/26 02:10:36;;;;;;;39.53;24.08;;;;;;;4.54;66.98;97774.44;10369834;28;20482;-50
2023/12/26 02:15:35;;;;;;;28.70;19.40;;;;;;;4.25;67.35;97756.66;10371059;28;20509;-49
2023/12/26 02:20:34;;;;;;;;;;;;;;;4.28;67.57;97782.41;10370997;28;20064;-49
2023/12/26 02:25:33;;;;;;;41.03;25.77;;;;;;;3.92;67.76;97760.97;10370273;28;19913;-50
2023/12/26 02:30:34;;;;;;;30.35;19.98;;;;;;;3.89;67.22;97760.88;10370822;28;20060;-49
2023/12/26 02:35:33;;;;;;;30.25;19.88;;;;;;;4.01;67.22;97777.47;10369734;28;20058;-50
2023/12/26 02:40:32;;;;;;;28.60;19.15;;;;;;;3.67;67.55;97733.81;10370330;28;20057;-52
2023/12/26 02:45:31;;;;;;;32.10;20.45;;;;;;;3.94;67.33;97765.31;10366660;28;20098;-52
2023/12/26 02:50:31;;;;;;;37.28;22.50;;;;;;;3.91;67.45;97769.50;10369607;28;20028;-50
2023/12/26 02:55:30;;;;;;;35.20;21.35;;;;;;;3.66;67.69;97732.94;10369025;28;20127;-50
2023/12/26 03:00:30;;;;;;;35.95;22.95;;;;;;;3.89;68.14;97768.59;10369423;28;20033;-52
2023/12/26 03:05:29;;;;;;;31.85;21.30;;;;;;;3.50;68.01;97706.03;10368046;28;20433;-49
2023/12/26 03:10:28;;;;;;;38.08;23.40;;;;;;;3.99;67.81;97780.84;10369073;28;21764;-53
2023/12/26 03:15:27;;;;;;;34.08;22.40;;;;;;;3.04;68.50;97627.00;10368768;28;20041;-51
2023/12/26 03:20:27;;;;;;;39.97;24.40;;;;;;;3.85;68.50;97771.09;10368355;28;20067;-49
2023/12/26 03:25:26;;;;;;;39.05;23.73;;;;;;;3.91;68.87;97797.75;10368364;28;20116;-50
2023/12/26 03:30:25;;;;;;;43.00;25.10;;;;;;;3.55;68.76;97734.38;10368586;28;20056;-50
2023/12/26 03:35:24;;;;;;;47.15;28.33;;;;;;;3.77;68.84;97776.84;10366677;28;20064;-50
2023/12/26 03:40:23;;;;;;;40.92;26.70;;;;;;;3.57;68.84;97751.53;10366934;28;20087;-50
2023/12/26 03:45:26;;;;;;;38.15;22.48;;;;;;;3.51;68.94;97751.34;10367367;28;20036;-50
2023/12/26 03:50:25;;;;;;;36.03;23.27;;;;;;;3.66;69.55;97797.09;10364967;28;20055;-51
2023/12/26 03:55:24;;;;;;;;;;;;;;;3.73;69.66;97804.13;10365382;28;20858;-50
2023/12/26 04:00:23;;;;;;;30.80;20.13;;;;;;;3.72;69.00;97809.22;10365356;28;20597;-49
2023/12/26 04:05:22;;;;;;;33.42;20.95;;;;;;;3.51;69.03;97778.72;10366073;28;20056;-51
2023/12/26 04:10:21;;;;;;;34.15;23.02;;;;;;;3.51;69.19;97797.53;10366204;28;20037;-49
2023/12/26 04:15:20;;;;;;;36.47;21.75;;;;;;;3.30;69.29;97782.41;10366205;28;20033;-51
2023/12/26 04:20:19;;;;;;;34.45;21.55;;;;;;;3.14;69.42;97759.75;10365949;28;20633;-49
2023/12/26 04:25:20;;;;;;;37.50;22.88;;;;;;;3.28;69.76;97778.94;10347458;28;20061;-50
2023/12/26 04:30:19;;;;;;;37.85;21.33;;;;;;;3.39;69.80;97803.19;10365628;28;20064;-49
2023/12/26 04:35:18;;;;;;;30.80;20.08;;;;;;;3.32;69.64;97803.84;10365752;28;20025;-50
2023/12/26 04:40:17;;;;;;;29.70;19.88;;;;;;;2.70;69.58;97713.19;10364948;28;20665;-52
2023/12/26 04:45:16;;;;;;;30.20;21.00;;;;;;;3.14;69.66;97785.38;10365405;28;20055;-50
2023/12/26 04:50:15;;;;;;;33.78;22.30;;;;;;;3.18;69.76;97800.03;10364961;28;20033;-49
2023/12/26 04:55:14;;;;;;;35.63;22.75;;;;;;;2.73;70.58;97747.47;10364752;28;20372;-51
2023/12/26 05:00:14;;;;;;;82.75;44.45;;;;;;;2.67;71.12;97772.03;10364940;28;20033;-50
2023/12/26 05:05:13;;;;;;;43.85;28.17;;;;;;;2.83;71.32;97807.56;10365207;28;20059;-50
2023/12/26 05:10:12;;;;;;;161.88;102.88;;;;;;;2.98;71.52;97840.44;10363689;28;20056;-49
2023/12/26 05:15:11;;;;;;;39.58;28.33;;;;;;;3.04;71.41;97850.03;10364797;28;20083;-49
2023/12/26 05:20:10;;;;;;;30.40;21.08;;;;;;;2.74;71.57;97830.34;10363484;28;20057;-50
2023/12/26 05:25:10;;;;;;;;;;;;;;;2.89;71.37;97841.06;10364942;28;20064;-49
2023/12/26 05:30:10;;;;;;;75.32;49.50;;;;;;;1.61;71.48;97650.97;10364556;28;20019;-51
2023/12/26 05:35:09;;;;;;;32.13;19.90;;;;;;;2.63;71.34;97836.81;10362677;28;20064;-50
2023/12/26 05:40:08;;;;;;;30.58;20.42;;;;;;;2.47;71.78;97828.66;10364549;28;20053;-50
2023/12/26 05:45:07;;;;;;;;;;;;;;;2.56;71.80;97846.88;10373564;28;21531;-50
2023/12/26 05:50:07;;;;;;;28.90;19.65;;;;;;;2.32;71.94;97799.97;10370692;28;20458;-49
2023/12/26 05:55:08;;;;;;;35.17;22.75;;;;;;;2.14;73.25;97795.16;10373801;28;20064;-49
2023/12/26 06:00:09;;;;;;;44.17;26.50;;;;;;;2.15;72.92;97787.50;10374142;28;20136;-49
2023/12/26 06:05:08;;;;;;;39.80;25.38;;;;;;;2.56;73.23;97839.19;10371697;28;20072;-49
2023/12/26 06:10:07;;;;;;;36.13;22.50;;;;;;;2.46;73.05;97829.47;10370459;28;20536;-49
2023/12/26 06:15:06;;;;;;;32.22;20.55;;;;;;;2.62;72.89;97832.53;10372034;28;20480;-49
2023/12/26 06:20:06;;;;;;;;;;;;;;;2.76;73.14;97838.94;10375102;28;20534;-50
2023/12/26 06:25:05;;;;;;;30.00;19.90;;;;;;;2.55;73.44;97806.69;10380959;28;20446;-49
2023/12/26 06:30:05;;;;;;;58.67;32.25;;;;;;;2.36;73.08;97760.84;10378668;28;20140;-50
2023/12/26 06:35:04;;;;;;;45.25;30.63;;;;;;;2.59;73.58;97790.59;10371919;28;20135;-50
2023/12/26 06:40:04;;;;;;;;;;;;;;;2.97;73.68;97839.59;10375543;28;20141;-49
2023/12/26 06:45:03;;;;;;;51.30;33.70;;;;;;;2.52;74.67;97829.66;10380186;28;20363;-49
2023/12/26 06:50:02;;;;;;;91.18;55.45;;;;;;;2.68;74.41;97837.84;10377239;28;20128;-50
2023/12/26 06:55:01;;;;;;;90.57;55.85;;;;;;;2.73;73.52;97811.53;10377365;28;20075;-49
2023/12/26 07:00:00;;;;;;;62.90;43.08;;;;;;;2.37;72.90;97721.59;10380339;28;20032;-50
2023/12/26 07:04:59;;;;;;;72.82;45.72;;;;;;;3.09;73.10;97833.09;10379646;28;20067;-52
2023/12/26 07:09:58;;;;;;;70.82;47.78;;;;;;;2.83;72.92;97758.84;10376911;28;20117;-52
2023/12/26 07:14:57;;;;;;;80.75;52.67;;;;;;;3.08;73.06;97808.28;10367530;28;20037;-51
2023/12/26 07:19:56;;;;;;;88.60;55.22;;;;;;;3.35;72.45;97824.44;10363959;28;20202;-49
2023/12/26 07:24:55;;;;;;;89.82;52.38;;;;;;;3.68;72.22;97836.47;10368258;28;20079;-51
2023/12/26 07:29:54;;;;;;;85.10;53.25;;;;;;;3.57;72.12;97796.84;10367252;28;20068;-50
2023/12/26 07:34:53;;;;;;;66.75;46.05;;;;;;;4.03;71.87;97826.28;10359717;28;20118;-49
2023/12/26 07:39:52;;;;;;;72.22;47.58;;;;;;;4.31;71.36;97835.56;10345501;28;20025;-50
2023/12/26 07:44:51;;;;;;;76.15;49.45;;;;;;;4.48;70.07;97808.59;10364125;28;20388;-50
2023/12/26 07:49:51;;;;;;;107.20;66.80;;;;;;;4.87;69.56;97842.88;10368081;28;20041;-49
2023/12/26 07:54:50;;;;;;;101.43;64.82;;;;;;;4.97;68.84;97829.47;10365138;28;20068;-51
2023/12/26 07:59:49;;;;;;;122.40;79.78;;;;;;;5.06;68.60;97815.91;10366507;28;20111;-50
2023/12/26 08:04:48;;;;;;;131.93;85.70;;;;;;;5.44;67.05;97816.72;10360322;28;20044;-50
2023/12/26 08:09:48;;;;;;;128.63;82.65;;;;;;;5.75;66.78;97843.06;10369741;28;20448;-50
2023/12/26 08:14:46;;;;;;;122.65;78.47;;;;;;;5.86;66.33;97820.09;10361159;28;20073;-52
2023/12/26 08:19:45;;;;;;;106.03;70.18;;;;;;;6.19;65.30;97817.28;10361979;28;20036;-50
2023/12/26 08:24:44;;;;;;;104.57;68.28;;;;;;;6.43;63.96;97803.06;10365695;28;20504;-50
2023/12/26 08:29:44;;;;;;;95.47;62.13;;;;;;;6.60;62.91;97822.22;10364689;28;20041;-49
2023/12/26 08:34:44;;;;;;;89.80;60.83;;;;;;;6.91;61.20;97813.22;10365629;28;20057;-50
2023/12/26 08:39:43;;;;;;;94.55;64.80;;;;;;;7.02;60.83;97779.84;10366732;28;21178;-51
2023/12/26 08:44:42;;;;;;;79.70;53.90;;;;;;;7.55;61.56;97828.75;10368373;28;20518;-50
2023/12/26 08:49:41;;;;;;;63.15;44.30;;;;;;;7.45;61.74;97770.97;10371554;28;20056;-49
2023/12/26 08:54:43;;;;;;;54.35;33.45;;;;;;;7.90;60.78;97824.81;10365906;28;20350;-50
2023/12/26 08:59:42;;;;;;;47.70;32.15;;;;;;;8.16;61.17;97820.78;10365461;28;20060;-52
2023/12/26 09:04:41;;;;;;;42.13;30.02;;;;;;;8.41;59.97;97798.63;10366002;28;20028;-50
2023/12/26 09:09:40;;;;;;;47.05;33.30;;;;;;;8.62;58.65;97791.88;10364969;28;20036;-50
2023/12/26 09:14:39;;;;;;;57.13;39.83;;;;;;;9.03;57.49;97799.03;10365118;28;20025;-51
2023/12/26 09:19:38;;;;;;;62.47;45.17;;;;;;;9.25;56.74;97797.44;10360100;28;20069;-51
2023/12/26 09:24:37;;;;;;;67.18;48.13;;;;;;;9.53;55.32;97780.31;10363642;28;20048;-49
2023/12/26 09:29:37;;;;;;;67.47;48.85;;;;;;;9.49;53.55;97717.28;10363092;28;20049;-56
2023/12/26 09:34:36;;;;;;;70.25;51.85;;;;;;;9.92;52.63;97745.00;10361760;28;20057;-49
2023/12/26 09:39:35;;;;;;;68.60;50.38;;;;;;;10.11;51.97;97744.16;10389561;28;20480;-49
2023/12/26 09:44:34;;;;;;;67.40;47.35;;;;;;;10.43;51.25;97727.72;10402384;28;20044;-49
2023/12/26 09:49:33;;;;;;;;;;;;;;;10.88;50.39;97738.94;10400919;28;20535;-49
2023/12/26 09:54:33;;;;;;;60.28;41.13;;;;;;;11.11;49.67;97730.22;10403193;28;19923;-49
2023/12/26 09:59:35;;;;;;;53.15;38.33;;;;;;;11.04;49.61;97661.84;10409746;28;20534;-50
2023/12/26 10:04:34;;;;;;;52.72;37.72;;;;;;;11.57;48.54;97688.41;10379249;28;20068;-49
2023/12/26 10:09:33;;;;;;;45.17;34.63;;;;;;;11.80;48.37;97685.66;10369424;28;20057;-49
2023/12/26 10:14:32;;;;;;;46.22;33.92;;;;;;;11.88;47.17;97653.53;10364848;28;20041;-49
2023/12/26 10:19:31;;;;;;;48.35;35.75;;;;;;;12.24;46.69;97672.31;10371202;28;20036;-49
2023/12/26 10:24:30;;;;;;;48.42;32.85;;;;;;;12.62;44.85;97684.09;10368273;28;20076;-49
2023/12/26 10:29:29;;;;;;;45.35;32.65;;;;;;;12.89;44.70;97669.94;10369794;28;20037;-51
2023/12/26 10:34:29;;;;;;;46.38;32.60;;;;;;;12.96;44.18;97628.19;10369968;28;20037;-50
2023/12/26 10:39:28;;;;;;;39.83;27.98;;;;;;;13.32;43.78;97616.41;10376050;28;20064;-49
2023/12/26 10:44:56;;;;;;;42.95;28.10;;;;;;;13.82;43.68;97653.06;10404035;28;20052;-50
2023/12/26 10:49:59;;;;;;;17.13;12.02;;;;;;;14.07;44.03;97643.09;10409895;28;20060;-51
2023/12/26 10:55:00;;;;;;;17.88;11.02;;;;;;;14.50;43.04;97639.72;10382303;28;20064;-50
2023/12/26 13:52:24;;;;;;;11.25;8.68;;;;;;;19.02;26.51;97526.56;10373168;28;20116;-51
2023/12/26 13:58:01;;;;;;;10.50;7.10;;;;;;;18.84;26.25;97529.91;10371972;28;20171;-50
2023/12/26 14:03:37;;;;;;;7.68;6.55;;;;;;;18.70;26.97;97529.56;10371003;28;20116;-52
2023/12/26 14:09:14;;;;;;;8.35;7.43;;;;;;;18.52;27.27;97523.16;10371724;28;20059;-52
2023/12/26 14:14:51;;;;;;;9.98;8.65;;;;;;;18.44;27.53;97515.56;10369923;28;20108;-52
2023/12/26 14:20:27;;;;;;;11.70;8.70;;;;;;;18.19;28.10;97505.94;10371495;28;20064;-50
2023/12/26 14:26:03;;;;;;;14.43;10.25;;;;;;;18.01;28.34;97503.97;10370780;28;20519;-51
2023/12/26 14:31:40;;;;;;;14.63;10.32;;;;;;;17.72;28.78;97499.69;10369838;28;20116;-52
2023/12/26 14:37:16;;;;;;;12.18;9.65;;;;;;;17.41;28.94;97495.47;10366627;28;20148;-53
2023/12/26 14:42:53;;;;;;;9.52;8.05;;;;;;;17.03;29.09;97496.69;10349756;28;20056;-51
2023/12/26 14:48:29;;;;;;;10.20;8.45;;;;;;;16.67;30.09;97504.72;10371900;28;20064;-53
2023/12/26 14:54:06;;;;;;;11.68;8.88;;;;;;;16.42;30.19;97500.19;10352610;28;20179;-50
2023/12/26 14:59:42;;;;;;;16.40;10.88;;;;;;;16.20;30.37;97512.16;10368052;28;20773;-50
2023/12/26 15:04:41;;;;;;;12.07;8.55;;;;;;;15.99;30.98;97503.13;10349266;28;20918;-50
2023/12/26 15:09:40;;;;;;;;;;;;;;;15.83;31.26;97507.91;10369656;28;20029;-51
2023/12/26 15:14:39;;;;;;;10.32;7.40;;;;;;;15.39;31.05;97465.41;10367272;28;19916;-51
2023/12/26 15:19:38;;;;;;;11.85;8.30;;;;;;;15.04;31.66;97438.38;10365814;28;20508;-51
2023/12/26 15:24:37;;;;;;;15.23;8.20;;;;;;;15.37;31.71;97522.09;10338552;28;20505;-50
2023/12/26 15:29:36;;;;;;;;;;;;;;;15.14;31.60;97515.66;10319115;28;20037;-50
2023/12/26 15:34:36;;;;;;;8.50;7.57;;;;;;;14.86;31.80;97481.47;10325165;28;20332;-51
2023/12/26 15:39:35;;;;;;;9.45;8.48;;;;;;;14.85;31.22;97505.88;10317792;28;20474;-51
2023/12/26 15:44:34;;;;;;;;;;;;;;;14.88;31.75;97528.47;10326702;28;20386;-52
2023/12/26 15:49:33;;;;;;;13.05;10.35;;;;;;;14.73;31.96;97522.69;10329720;28;19909;-50
2023/12/26 15:54:32;;;;;;;13.75;8.23;;;;;;;14.33;32.41;97472.97;10328872;28;20065;-52
2023/12/26 15:59:31;;;;;;;14.20;10.77;;;;;;;14.30;32.32;97497.41;10340855;28;20098;-52
2023/12/26 16:04:30;;;;;;;;;;;;;;;14.32;32.53;97537.38;10337928;28;20056;-50
2023/12/26 16:09:29;;;;;;;10.13;7.65;;;;;;;14.24;32.42;97539.31;10339356;28;20001;-50
2023/12/26 16:14:28;;;;;;;13.40;10.15;;;;;;;13.94;32.40;97481.59;10330035;28;20030;-52
2023/12/26 16:19:27;;;;;;;21.08;18.88;;;;;;;14.23;31.93;97537.56;10326317;28;20500;-52
2023/12/26 16:24:26;;;;;;;21.00;16.27;;;;;;;14.21;33.18;97526.28;10359395;28;20523;-52
2023/12/26 16:29:25;;;;;;;;;;;;;;;14.36;33.31;97533.84;10365052;28;20523;-49
2023/12/26 16:34:24;;;;;;;26.48;17.00;;;;;;;14.14;33.58;97504.66;10357407;28;19916;-49
2023/12/26 16:39:23;;;;;;;21.73;15.65;;;;;;;14.15;34.05;97516.00;10366110;28;20063;-49
2023/12/26 16:44:22;;;;;;;17.83;13.75;;;;;;;13.64;34.20;97464.75;10364390;28;20025;-49
2023/12/26 16:49:21;;;;;;;23.02;15.85;;;;;;;13.80;33.51;97524.44;10367337;28;20080;-51
2023/12/26 16:54:20;;;;;;;17.90;13.15;;;;;;;13.75;33.73;97511.50;10364720;28;20506;-49
2023/12/26 16:59:20;;;;;;;16.90;12.40;;;;;;;13.75;33.19;97490.66;10363120;28;20033;-50
2023/12/26 17:04:19;;;;;;;16.17;10.43;;;;;;;13.91;32.96;97493.81;10362217;28;20132;-49
2023/12/26 17:09:19;;;;;;;10.77;9.65;;;;;;;13.82;33.55;97483.53;10364629;28;20052;-49
2023/12/26 17:14:17;;;;;;;10.73;8.88;;;;;;;13.89;33.40;97517.34;10362248;28;20056;-51
2023/12/26 17:19:16;;;;;;;29.17;20.00;;;;;;;13.78;33.44;97520.13;10358632;28;20044;-49
2023/12/26 17:24:15;;;;;;;20.75;17.63;;;;;;;13.82;33.12;97530.47;10363541;28;20766;-52
2023/12/26 17:29:14;;;;;;;19.25;13.63;;;;;;;13.84;33.87;97540.00;10361943;28;20110;-49
2023/12/26 17:34:13;;;;;;;16.30;13.02;;;;;;;13.24;34.13;97454.97;10360741;28;20114;-50
2023/12/26 17:39:13;;;;;;;28.05;21.27;;;;;;;13.22;34.78;97487.16;10360068;28;20721;-50
2023/12/26 17:44:16;;;;;;;21.73;16.63;;;;;;;13.34;35.76;97532.09;10373259;28;20067;-53
2023/12/26 17:49:15;;;;;;;16.60;10.48;;;;;;;12.87;34.53;97548.44;10361077;28;20061;-51
2023/12/26 17:54:14;;;;;;;39.42;25.98;;;;;;;12.87;34.71;97511.97;10365222;28;20055;-52
2023/12/26 17:59:13;;;;;;;;;;;;;;;12.70;36.19;97562.53;10352677;28;20475;-50
2023/12/26 18:04:12;;;;;;;25.58;14.73;;;;;;;12.62;36.48;97572.16;10362182;28;20280;-52
2023/12/26 18:09:11;;;;;;;16.58;10.93;;;;;;;12.39;36.79;97575.06;10363758;28;20599;-50
2023/12/26 18:14:11;;;;;;;16.58;11.45;;;;;;;12.05;37.25;97556.31;10349629;28;21589;-52
2023/12/26 18:19:10;;;;;;;17.40;12.40;;;;;;;11.52;37.77;97510.88;10368471;28;20456;-51
2023/12/26 18:24:11;;;;;;;18.30;13.55;;;;;;;11.56;37.98;97569.75;10364625;28;20079;-51
2023/12/26 18:29:10;;;;;;;17.05;11.82;;;;;;;11.33;39.22;97573.38;10380404;28;20064;-50
2023/12/26 18:34:09;;;;;;;19.90;14.40;;;;;;;11.16;39.58;97609.00;10364095;28;20124;-50
2023/12/26 18:39:08;;;;;;;;;;;;;;;11.03;39.33;97609.06;10371080;28;20072;-50
2023/12/26 18:44:08;;;;;;;17.98;13.00;;;;;;;10.77;39.57;97590.09;10349899;28;19920;-51
2023/12/26 18:49:08;;;;;;;23.95;16.98;;;;;;;10.79;40.03;97603.94;10360319;28;20559;-51
2023/12/26 18:54:06;;;;;;;;;;;;;;;10.71;40.24;97621.28;10360912;28;20152;-50
2023/12/26 18:59:05;;;;;;;14.57;10.07;;;;;;;10.60;39.67;97623.91;10359137;28;19921;-50
2023/12/26 19:04:04;;;;;;;16.27;12.00;;;;;;;10.35;39.41;97566.03;10365264;28;20124;-53
2023/12/26 19:09:03;;;;;;;31.70;20.52;;;;;;;10.67;40.04;97578.03;10332030;28;20052;-50
2023/12/26 19:14:02;;;;;;;34.70;23.88;;;;;;;10.90;39.85;97628.16;10374102;28;20120;-50
2023/12/26 19:19:01;;;;;;;33.85;22.33;;;;;;;10.44;40.26;97597.16;10350489;28;20046;-51
2023/12/26 19:24:00;;;;;;;33.17;21.75;;;;;;;10.66;39.86;97643.78;10356074;28;20127;-50
2023/12/26 19:29:00;;;;;;;35.03;23.48;;;;;;;10.57;40.72;97665.44;10366020;28;20071;-53
2023/12/26 19:33:59;;;;;;;21.83;14.45;;;;;;;10.09;41.12;97626.59;10358297;28;20127;-50
2023/12/26 19:38:58;;;;;;;24.10;15.80;;;;;;;10.21;41.42;97675.00;10361289;28;20036;-52
2023/12/26 19:43:58;;;;;;;45.63;28.13;;;;;;;10.04;42.66;97707.84;10364269;28;20133;-50
2023/12/26 19:48:57;;;;;;;50.55;32.50;;;;;;;9.87;43.16;97684.53;10359298;28;20474;-48
2023/12/26 19:53:56;;;;;;;43.90;27.85;;;;;;;9.67;43.86;97700.91;10363140;28;20484;-50
2023/12/26 19:58:55;;;;;;;39.88;26.92;;;;;;;9.55;43.92;97687.91;10338811;28;20098;-49
2023/12/26 20:03:53;;;;;;;32.97;22.67;;;;;;;9.52;43.74;97712.09;10355203;28;20060;-50
2023/12/26 20:08:53;;;;;;;32.08;21.90;;;;;;;9.25;44.31;97683.50;10364722;28;20044;-48
2023/12/26 20:13:52;;;;;;;31.77;20.35;;;;;;;9.14;44.65;97717.13;10364462;28;20124;-49
2023/12/26 20:18:51;;;;;;;41.00;28.95;;;;;;;9.44;44.66;97736.25;10361625;28;20033;-49
2023/12/26 20:23:50;;;;;;;37.13;24.17;;;;;;;9.26;45.55;97712.00;10366033;28;20083;-49
2023/12/26 20:28:49;;;;;;;27.52;19.15;;;;;;;9.20;45.18;97730.09;10366069;28;20027;-49
2023/12/26 20:33:50;;;;;;;42.42;29.02;;;;;;;9.03;45.95;97717.06;10365169;28;20037;-50
2023/12/26 20:38:49;;;;;;;42.30;29.80;;;;;;;8.82;45.52;97673.84;10363836;28;20064;-50
2023/12/26 20:43:48;;;;;;;27.30;20.25;;;;;;;8.90;46.59;97744.63;10364691;28;20116;-51
2023/12/26 20:48:47;;;;;;;24.65;16.45;;;;;;;8.07;46.32;97640.66;10362292;28;20060;-49
2023/12/26 20:53:48;;;;;;;26.33;17.80;;;;;;;8.84;46.49;97774.78;10362731;28;20029;-49
2023/12/26 20:58:47;;;;;;;28.52;19.48;;;;;;;8.51;47.03;97774.56;10370354;28;20617;-51
2023/12/26 21:03:46;;;;;;;31.13;21.98;;;;;;;8.57;47.33;97801.31;10383149;28;20035;-50
2023/12/26 21:08:46;;;;;;;28.70;19.20;;;;;;;8.42;47.72;97792.59;10361004;28;20119;-49
2023/12/26 21:13:55;;;;;;;23.05;15.18;;;;;;;8.33;47.53;97791.66;10362371;28;20115;-48
2023/12/26 21:18:54;;;;;;;24.67;16.23;;;;;;;8.19;47.35;97782.03;10365269;28;20582;-49
2023/12/26 21:23:53;;;;;;;26.85;17.27;;;;;;;8.21;47.24;97800.16;10361806;28;20507;-53
2023/12/26 21:28:52;;;;;;;27.02;17.02;;;;;;;7.02;47.25;97597.53;10362708;28;20044;-49
2023/12/26 21:33:50;;;;;;;24.33;14.48;;;;;;;7.97;47.58;97747.41;10374982;28;20554;-50
2023/12/26 21:38:50;;;;;;;27.13;19.75;;;;;;;8.21;48.39;97820.84;10354054;28;20043;-48
2023/12/26 21:43:49;;;;;;;35.03;23.10;;;;;;;7.86;48.39;97736.09;10358488;28;20466;-50
2023/12/26 21:48:48;;;;;;;46.83;28.75;;;;;;;8.28;48.40;97832.97;10358434;28;20466;-49
2023/12/26 21:53:47;;;;;;;78.05;37.10;;;;;;;8.30;47.87;97841.63;10366068;28;20461;-48
2023/12/26 21:58:46;;;;;;;39.35;25.20;;;;;;;7.90;49.04;97817.97;10367307;28;20424;-49
2023/12/26 22:03:45;;;;;;;35.80;23.77;;;;;;;7.70;50.17;97825.47;10368552;28;20472;-48
2023/12/26 22:08:43;;;;;;;120.25;52.50;;;;;;;7.80;49.55;97840.25;10365112;28;20559;-49
2023/12/26 22:13:42;;;;;;;168.13;71.05;;;;;;;7.61;49.16;97805.56;10370014;28;20444;-49
2023/12/26 22:18:41;;;;;;;51.80;27.45;;;;;;;7.89;49.15;97844.63;10368973;28;20478;-48
2023/12/26 22:23:41;;;;;;;38.70;24.13;;;;;;;7.93;49.92;97867.06;10366179;28;20053;-50
2023/12/26 22:28:40;;;;;;;31.38;20.00;;;;;;;7.22;49.43;97762.91;10367835;28;20060;-49
2023/12/26 22:33:38;;;;;;;35.10;21.23;;;;;;;7.32;49.57;97797.44;10367086;28;20036;-49
2023/12/26 22:38:38;;;;;;;46.72;24.65;;;;;;;5.69;50.31;97529.72;10367156;28;20127;-49
2023/12/26 22:43:37;;;;;;;;;;;;;;;7.63;50.44;97877.91;10368004;28;20116;-51
2023/12/26 22:48:35;;;;;;;40.90;22.58;;;;;;;7.40;50.15;97856.94;10367046;28;20019;-50
2023/12/26 22:53:39;;;;;;;41.95;24.92;;;;;;;7.41;50.99;97871.59;10364948;28;20044;-49
2023/12/26 22:58:38;;;;;;;29.35;19.58;;;;;;;6.96;51.70;97821.94;10365329;28;20159;-50
2023/12/26 23:03:37;;;;;;;33.72;18.40;;;;;;;7.02;52.18;97865.00;10364979;28;20140;-48
2023/12/26 23:08:36;;;;;;;28.70;17.77;;;;;;;6.85;52.36;97843.25;10368004;28;20058;-49
2023/12/26 23:13:35;;;;;;;26.38;15.35;;;;;;;6.42;53.51;97839.97;10366526;28;20037;-49
2023/12/26 23:18:34;;;;;;;42.97;25.08;;;;;;;6.22;53.53;97832.78;10351764;28;20139;-51
2023/12/26 23:23:33;;;;;;;44.55;26.52;;;;;;;6.02;53.43;97826.41;10363102;28;20136;-50
2023/12/26 23:28:32;;;;;;;160.43;90.75;;;;;;;6.37;53.62;97906.91;10392014;28;20115;-49
2023/12/26 23:33:31;;;;;;;75.32;45.22;;;;;;;6.41;54.21;97913.84;10381505;28;20152;-49
2023/12/26 23:38:30;;;;;;;49.85;30.55;;;;;;;6.26;54.60;97896.41;10373177;28;20131;-51
2023/12/26 23:43:29;;;;;;;33.35;21.52;;;;;;;6.13;55.76;97891.88;10380472;28;20140;-49
2023/12/26 23:48:28;;;;;;;;;;;;;;;6.14;56.34;97919.34;10376073;28;20579;-49
2023/12/26 23:53:27;;;;;;;38.83;23.73;;;;;;;5.90;56.27;97920.63;10378868;28;20371;-50
2023/12/26 23:58:26;;;;;;;44.20;26.45;;;;;;;5.64;57.55;97919.22;10381666;28;20452;-50
